Time;durP1;ratioP1;P1;durP2;ratioP2;P2;SDS_P1;SDS_P2;PMS_P1;PMS_P2;Temp;Humidity;BMP_temperature;BMP_pressure;BME280_temperature;BME280_humidity;BME280_pressure;Samples;Min_cycle;Max_cycle;Signal;HPM_P1;HPM_P2
2021/07/02 00:00:13;;;;;;;;;;;27.30;94.10;;;;;;1927297;71;20521;-88
2021/07/02 00:02:44;;;;;;;;;;;27.20;93.90;;;;;;1938532;71;20650;-90
2021/07/02 00:05:13;;;;;;;;;;;27.30;93.60;;;;;;1937510;71;20573;-90
2021/07/02 00:07:43;;;;;;;;;;;27.30;93.40;;;;;;1952456;71;20276;-90
2021/07/02 00:10:13;;;;;;;;;;;27.40;93.60;;;;;;1945321;71;20212;-89
2021/07/02 00:12:42;;;;;;;;;;;27.30;93.80;;;;;;1953340;71;20186;-90
2021/07/02 00:15:13;;;;;;;;;;;27.40;93.80;;;;;;1939310;72;20190;-90
2021/07/02 00:17:43;;;;;;;;;;;27.40;93.30;;;;;;1938544;71;20454;-91
2021/07/02 00:20:12;;;;;;;;;;;27.50;93.20;;;;;;1943537;72;20184;-91
2021/07/02 00:22:42;;;;;;;;;;;27.50;93.30;;;;;;1949863;71;20238;-90
2021/07/02 00:25:12;;;;;;;;;;;27.50;93.30;;;;;;1954437;71;20208;-90
2021/07/02 00:27:42;;;;;;;;;;;27.60;93.20;;;;;;1956686;71;20210;-90
2021/07/02 00:30:12;;;;;;;;;;;27.60;93.10;;;;;;1920951;72;20201;-91
2021/07/02 00:32:41;;;;;;;;;;;27.60;92.80;;;;;;1914498;73;20153;-90
2021/07/02 00:35:11;;;;;;;;;;;27.60;92.90;;;;;;1904554;72;20172;-89
2021/07/02 00:37:41;;;;;;;;;;;27.70;92.70;;;;;;1864493;75;20170;-91
2021/07/02 00:40:11;;;;;;;;;;;27.70;92.80;;;;;;1857162;74;20247;-88
2021/07/02 00:42:40;;;;;;;;;;;27.80;92.90;;;;;;1873711;75;20153;-90
2021/07/02 00:45:10;;;;;;;;;;;27.80;92.90;;;;;;1873804;74;20141;-90
2021/07/02 00:47:40;;;;;;;;;;;27.90;92.60;;;;;;1890821;73;20127;-89
2021/07/02 00:50:10;;;;;;;;;;;27.90;92.10;;;;;;1864020;74;20171;-91
2021/07/02 00:52:40;;;;;;;;;;;28.00;92.20;;;;;;1876934;74;20285;-91
2021/07/02 00:55:10;;;;;;;;;;;27.90;92.10;;;;;;1870983;75;20452;-88
2021/07/02 00:57:40;;;;;;;;;;;28.00;92.30;;;;;;1869046;75;20150;-88
2021/07/02 01:00:10;;;;;;;;;;;28.00;92.20;;;;;;1942821;72;20252;-87
2021/07/02 01:02:40;;;;;;;;;;;28.00;92.20;;;;;;1944508;71;20209;-88
2021/07/02 01:05:10;;;;;;;;;;;28.10;92.10;;;;;;1926128;72;20280;-87
2021/07/02 01:07:40;;;;;;;;;;;28.20;91.70;;;;;;1931125;70;20202;-88
2021/07/02 01:10:11;;;;;;;;;;;28.30;91.60;;;;;;1937003;72;20193;-90
2021/07/02 01:12:46;;;;;;;;;;;28.40;91.50;;;;;;1926684;72;20195;-88
2021/07/02 01:15:13;;;;;;;;;;;28.40;91.40;;;;;;1942380;71;20223;-87
2021/07/02 01:17:42;;;;;;;;;;;28.50;91.30;;;;;;1937774;72;20264;-88
2021/07/02 01:20:12;;;;;;;;;;;28.60;91.10;;;;;;1939541;70;20222;-88
2021/07/02 01:22:42;;;;;;;;;;;28.70;91.00;;;;;;1938083;72;20271;-88
2021/07/02 01:25:11;;;;;;;;;;;28.80;91.00;;;;;;1948594;70;20181;-88
2021/07/02 01:27:41;;;;;;;;;;;28.90;90.50;;;;;;1940457;70;20550;-90
2021/07/02 01:30:11;;;;;;;;;;;29.00;90.30;;;;;;1944343;70;20587;-88
2021/07/02 01:32:41;;;;;;;;;;;29.10;89.90;;;;;;1931776;71;20263;-88
2021/07/02 01:35:10;;;;;;;;;;;29.20;89.40;;;;;;1941977;72;20218;-88
2021/07/02 01:37:40;;;;;;;;;;;29.40;87.90;;;;;;1947810;72;20489;-88
2021/07/02 01:40:10;;;;;;;;;;;29.40;87.50;;;;;;1937542;71;20428;-88
2021/07/02 01:42:41;;;;;;;;;;;29.50;87.20;;;;;;1947168;72;20177;-87
2021/07/02 01:45:11;;;;;;;;;;;29.60;87.60;;;;;;1937747;72;20216;-78
2021/07/02 01:47:41;;;;;;;;;;;29.60;87.20;;;;;;1895199;72;20186;-78
2021/07/02 01:50:15;;;;;;;;;;;29.70;87.00;;;;;;1856213;75;20186;-78
2021/07/02 01:52:45;;;;;;;;;;;29.90;86.40;;;;;;1860165;75;20188;-79
2021/07/02 01:55:16;;;;;;;;;;;29.90;85.40;;;;;;1868784;75;20184;-78
2021/07/02 01:57:49;;;;;;;;;;;29.90;85.60;;;;;;1867870;75;20288;-78
2021/07/02 02:00:19;;;;;;;;;;;30.00;84.90;;;;;;1882908;74;20168;-78
2021/07/02 02:02:53;;;;;;;;;;;30.10;84.80;;;;;;1888218;74;20266;-78
2021/07/02 02:05:42;;;;;;;;;;;30.20;83.90;;;;;;1894636;74;20228;-78
2021/07/02 02:08:21;;;;;;;;;;;30.20;84.20;;;;;;1851708;75;20379;-78
2021/07/02 02:10:47;;;;;;;;;;;30.30;83.60;;;;;;1871132;75;20158;-78
2021/07/02 02:13:17;;;;;;;;;;;30.30;82.70;;;;;;1891108;73;20280;-78
2021/07/02 02:18:37;;;;;;;;;;;30.50;83.00;;;;;;1915378;72;20208;-79
2021/07/02 02:21:07;;;;;;;;;;;30.50;83.00;;;;;;1950126;71;20577;-77
2021/07/02 02:23:36;;;;;;;;;;;30.50;82.00;;;;;;1927673;72;20238;-78
2021/07/02 02:26:06;;;;;;;;;;;30.60;82.70;;;;;;1917415;72;20459;-77
2021/07/02 02:28:36;;;;;;;;;;;30.70;82.60;;;;;;1929918;72;20524;-78
2021/07/02 02:31:06;;;;;;;;;;;30.80;81.90;;;;;;1948559;71;20148;-78
2021/07/02 02:33:40;;;;;;;;;;;31.00;81.10;;;;;;1939209;72;20229;-78
2021/07/02 02:36:09;;;;;;;;;;;31.10;80.60;;;;;;1944822;71;20315;-79
2021/07/02 02:38:39;;;;;;;;;;;31.20;81.70;;;;;;1940518;71;20195;-79
2021/07/02 02:41:09;;;;;;;;;;;31.30;80.50;;;;;;1931772;71;20179;-78
2021/07/02 02:43:38;;;;;;;;;;;31.40;79.00;;;;;;1970274;70;20205;-77
2021/07/02 02:46:09;;;;;;;;;;;31.60;78.10;;;;;;1952928;72;20122;-78
2021/07/02 02:48:43;;;;;;;;;;;31.60;76.10;;;;;;1949893;71;20187;-77
2021/07/02 02:51:16;;;;;;;;;;;31.70;77.20;;;;;;1931819;71;20243;-79
2021/07/02 02:53:47;;;;;;;;;;;31.80;75.90;;;;;;1926143;71;20251;-78
2021/07/02 02:56:20;;;;;;;;;;;31.90;76.00;;;;;;1937705;70;20482;-79
2021/07/02 02:58:49;;;;;;;;;;;32.00;75.00;;;;;;1955582;72;20196;-78
2021/07/02 03:01:20;;;;;;;;;;;32.00;75.30;;;;;;1856825;74;20231;-77
2021/07/02 03:03:50;;;;;;;;;;;32.10;73.70;;;;;;1881590;74;20273;-79
2021/07/02 03:06:23;;;;;;;;;;;32.20;73.90;;;;;;1905393;73;20589;-79
2021/07/02 03:08:52;;;;;;;;;;;32.20;72.60;;;;;;1941032;71;20167;-79
2021/07/02 03:11:23;;;;;;;;;;;32.30;71.80;;;;;;1961832;70;20192;-78
2021/07/02 03:13:53;;;;;;;;;;;32.40;70.90;;;;;;1929672;72;20185;-77
2021/07/02 03:16:23;;;;;;;;;;;32.40;69.20;;;;;;1931075;73;20259;-77
2021/07/02 03:18:53;;;;;;;;;;;32.30;69.20;;;;;;1932041;72;20669;-78
2021/07/02 03:21:23;;;;;;;;;;;32.30;70.60;;;;;;1924944;72;20233;-76
2021/07/02 03:23:52;;;;;;;;;;;32.40;70.80;;;;;;1929426;72;20254;-78
2021/07/02 03:26:22;;;;;;;;;;;32.40;70.30;;;;;;1918695;72;20411;-78
2021/07/02 03:28:54;;;;;;;;;;;32.50;69.20;;;;;;1931114;73;20263;-77
2021/07/02 03:31:23;;;;;;;;;;;32.60;69.50;;;;;;1925785;72;20124;-78
2021/07/02 03:33:53;;;;;;;;;;;32.60;69.10;;;;;;1924456;73;20220;-78
2021/07/02 03:36:23;;;;;;;;;;;32.60;68.50;;;;;;1920151;72;20188;-78
2021/07/02 03:38:53;;;;;;;;;;;32.60;68.10;;;;;;1885927;73;20299;-79
2021/07/02 03:41:22;;;;;;;;;;;32.80;67.90;;;;;;1940288;71;20219;-79
2021/07/02 03:43:52;;;;;;;;;;;32.90;69.40;;;;;;1962335;70;20223;-78
2021/07/02 03:46:22;;;;;;;;;;;33.00;68.30;;;;;;1935564;70;20159;-78
2021/07/02 03:48:52;;;;;;;;;;;33.10;66.80;;;;;;1917700;72;20261;-79
2021/07/02 03:51:23;;;;;;;;;;;33.10;67.00;;;;;;1920162;71;20149;-78
2021/07/02 03:53:53;;;;;;;;;;;33.10;68.00;;;;;;1939290;70;20250;-78
2021/07/02 03:56:23;;;;;;;;;;;33.10;68.70;;;;;;1944668;71;20187;-78
2021/07/02 03:58:56;;;;;;;;;;;33.10;67.20;;;;;;1949827;70;20655;-77
2021/07/02 04:01:26;;;;;;;;;;;33.10;67.20;;;;;;1953137;70;20205;-78
2021/07/02 04:03:55;;;;;;;;;;;33.10;66.30;;;;;;1945117;71;20172;-77
2021/07/02 04:06:25;;;;;;;;;;;33.00;66.90;;;;;;1948949;70;20247;-77
2021/07/02 04:08:55;;;;;;;;;;;33.00;66.80;;;;;;1932478;72;20221;-78
2021/07/02 04:11:24;;;;;;;;;;;32.90;66.40;;;;;;1937787;71;20177;-77
2021/07/02 04:13:55;;;;;;;;;;;32.80;67.00;;;;;;1945808;70;20432;-77
2021/07/02 04:16:25;;;;;;;;;;;33.00;67.00;;;;;;1946320;71;20122;-77
2021/07/02 04:18:55;;;;;;;;;;;33.00;67.20;;;;;;1948024;71;20197;-79
2021/07/02 04:21:25;;;;;;;;;;;33.10;68.10;;;;;;1940919;72;20277;-78
2021/07/02 04:23:54;;;;;;;;;;;33.20;66.40;;;;;;1930111;72;20125;-77
2021/07/02 04:26:24;;;;;;;;;;;33.30;66.30;;;;;;1931518;72;20125;-78
2021/07/02 04:28:54;;;;;;;;;;;33.50;66.10;;;;;;1939169;71;20447;-78
2021/07/02 04:31:26;;;;;;;;;;;33.60;65.10;;;;;;1913008;73;20154;-78
2021/07/02 04:33:56;;;;;;;;;;;33.60;66.00;;;;;;1954635;72;20113;-78
2021/07/02 04:36:27;;;;;;;;;;;33.70;64.70;;;;;;1944588;71;20407;-77
2021/07/02 04:38:57;;;;;;;;;;;33.80;64.50;;;;;;1954183;72;20236;-78
2021/07/02 04:41:27;;;;;;;;;;;33.90;63.10;;;;;;1888484;73;20488;-77
2021/07/02 04:43:57;;;;;;;;;;;33.90;62.40;;;;;;1871333;74;20194;-78
2021/07/02 04:46:26;;;;;;;;;;;33.90;61.90;;;;;;1944488;71;20315;-78
2021/07/02 04:48:56;;;;;;;;;;;33.90;63.60;;;;;;1944423;71;20943;-78
2021/07/02 04:51:26;;;;;;;;;;;33.90;62.10;;;;;;1965150;71;20176;-79
2021/07/02 04:53:55;;;;;;;;;;;34.00;61.60;;;;;;1956057;71;20169;-79
2021/07/02 04:56:26;;;;;;;;;;;34.10;60.80;;;;;;1961336;72;20427;-79
2021/07/02 04:58:57;;;;;;;;;;;34.10;60.40;;;;;;1940829;71;20206;-79
2021/07/02 05:01:27;;;;;;;;;;;34.10;61.50;;;;;;1950113;71;20202;-79
2021/07/02 05:03:57;;;;;;;;;;;34.10;62.40;;;;;;1935331;72;20167;-79
2021/07/02 05:06:27;;;;;;;;;;;34.00;61.60;;;;;;1948092;72;20267;-79
2021/07/02 05:08:56;;;;;;;;;;;34.00;61.90;;;;;;1949078;71;20237;-78
2021/07/02 05:11:29;;;;;;;;;;;34.00;61.20;;;;;;1943879;71;20715;-78
2021/07/02 05:13:59;;;;;;;;;;;34.10;61.70;;;;;;1945377;70;20255;-78
2021/07/02 05:16:29;;;;;;;;;;;34.30;61.70;;;;;;1948750;71;20156;-77
2021/07/02 05:18:58;;;;;;;;;;;34.50;61.80;;;;;;1949952;72;20515;-78
2021/07/02 05:21:28;;;;;;;;;;;34.40;60.50;;;;;;1953445;72;20206;-78
2021/07/02 05:23:58;;;;;;;;;;;34.30;62.10;;;;;;1941383;72;20113;-77
2021/07/02 05:26:27;;;;;;;;;;;34.30;61.50;;;;;;1935986;73;20430;-77
2021/07/02 05:28:58;;;;;;;;;;;34.20;61.90;;;;;;1923083;73;20243;-78
2021/07/02 05:31:27;;;;;;;;;;;34.10;62.10;;;;;;1924767;72;20260;-78
2021/07/02 05:33:58;;;;;;;;;;;34.10;62.20;;;;;;1929054;72;20174;-78
2021/07/02 05:36:28;;;;;;;;;;;34.10;62.30;;;;;;1916020;73;20205;-78
2021/07/02 05:38:58;;;;;;;;;;;34.10;61.90;;;;;;1928919;72;20149;-77
2021/07/02 05:41:28;;;;;;;;;;;34.10;61.80;;;;;;1931985;72;20568;-77
2021/07/02 05:43:58;;;;;;;;;;;34.10;60.30;;;;;;1914849;72;20679;-78
2021/07/02 05:46:29;;;;;;;;;;;34.10;61.20;;;;;;1927818;73;20254;-79
2021/07/02 05:49:08;;;;;;;;;;;33.90;61.40;;;;;;1930873;73;20161;-78
2021/07/02 05:51:33;;;;;;;;;;;33.90;63.10;;;;;;1917489;72;20160;-78
2021/07/02 05:54:04;;;;;;;;;;;33.90;64.10;;;;;;1934706;73;20134;-79
2021/07/02 05:56:37;;;;;;;;;;;33.90;62.00;;;;;;1929574;72;20206;-77
2021/07/02 05:59:07;;;;;;;;;;;33.90;59.60;;;;;;1926571;73;20179;-79
2021/07/02 06:01:36;;;;;;;;;;;33.80;60.10;;;;;;1932346;73;20409;-77
2021/07/02 06:04:09;;;;;;;;;;;33.70;60.40;;;;;;1923863;73;20183;-78
2021/07/02 06:06:42;;;;;;;;;;;33.80;61.10;;;;;;1863859;75;20258;-79
2021/07/02 06:09:12;;;;;;;;;;;33.90;62.20;;;;;;1930921;73;20180;-79
2021/07/02 06:11:52;;;;;;;;;;;34.00;61.80;;;;;;1875398;74;20155;-77
2021/07/02 06:14:28;;;;;;;;;;;34.20;61.80;;;;;;1882515;74;20235;-78
2021/07/02 06:16:58;;;;;;;;;;;34.20;62.20;;;;;;1876159;73;20157;-77
2021/07/02 06:19:32;;;;;;;;;;;34.30;61.90;;;;;;1895267;74;20520;-78
2021/07/02 06:21:58;;;;;;;;;;;34.20;59.70;;;;;;1848675;74;20272;-78
2021/07/02 06:24:28;;;;;;;;;;;34.20;59.30;;;;;;1896535;73;20205;-78
2021/07/02 06:26:58;;;;;;;;;;;34.20;60.30;;;;;;1855574;75;20195;-78
2021/07/02 06:29:28;;;;;;;;;;;34.20;59.50;;;;;;1898115;73;20457;-78
2021/07/02 06:31:58;;;;;;;;;;;34.20;59.50;;;;;;1912593;73;20199;-79
2021/07/02 06:34:28;;;;;;;;;;;34.20;59.00;;;;;;1853753;74;20238;-79
2021/07/02 06:36:59;;;;;;;;;;;34.30;59.00;;;;;;1860596;75;20256;-78
2021/07/02 06:39:30;;;;;;;;;;;34.30;58.20;;;;;;1857953;74;20155;-78
2021/07/02 06:42:01;;;;;;;;;;;34.30;59.50;;;;;;1864200;74;20492;-79
2021/07/02 06:44:32;;;;;;;;;;;34.50;60.30;;;;;;1883236;74;20150;-79
2021/07/02 06:47:02;;;;;;;;;;;34.60;59.50;;;;;;1876527;74;20180;-79
2021/07/02 06:49:32;;;;;;;;;;;34.60;58.70;;;;;;1894814;74;20212;-77
2021/07/02 06:52:03;;;;;;;;;;;34.70;58.70;;;;;;1904466;74;20256;-76
2021/07/02 06:54:33;;;;;;;;;;;34.70;59.90;;;;;;1902158;73;20217;-78
2021/07/02 06:57:04;;;;;;;;;;;34.70;58.30;;;;;;1914749;72;20610;-78
2021/07/02 06:59:37;;;;;;;;;;;34.70;58.40;;;;;;1903402;73;20223;-79
2021/07/02 07:02:08;;;;;;;;;;;34.70;59.10;;;;;;1914758;73;20249;-79
2021/07/02 07:04:38;;;;;;;;;;;34.70;58.90;;;;;;1866082;75;20428;-76
2021/07/02 07:07:09;;;;;;;;;;;34.80;57.60;;;;;;1859447;75;20443;-78
2021/07/02 07:09:39;;;;;;;;;;;34.80;57.90;;;;;;1847438;75;20275;-78
2021/07/02 07:12:09;;;;;;;;;;;34.70;58.30;;;;;;1818728;76;20215;-78
2021/07/02 07:14:39;;;;;;;;;;;34.60;58.20;;;;;;1857262;75;20764;-78
2021/07/02 07:17:11;;;;;;;;;;;34.50;58.20;;;;;;1840386;75;20282;-78
2021/07/02 07:19:40;;;;;;;;;;;34.40;58.00;;;;;;1853633;74;20338;-79
2021/07/02 07:22:10;;;;;;;;;;;34.40;58.60;;;;;;1888477;73;20130;-80
2021/07/02 07:24:40;;;;;;;;;;;34.50;59.80;;;;;;1898488;73;20197;-79
2021/07/02 07:27:09;;;;;;;;;;;34.50;58.60;;;;;;1893930;73;20173;-79
2021/07/02 07:29:42;;;;;;;;;;;34.70;59.40;;;;;;1894754;72;20239;-78
2021/07/02 07:32:11;;;;;;;;;;;34.70;57.90;;;;;;1894269;72;20222;-78
2021/07/02 07:34:48;;;;;;;;;;;34.70;58.20;;;;;;1883517;73;20185;-78
2021/07/02 07:37:16;;;;;;;;;;;34.50;58.60;;;;;;1872871;73;20129;-78
2021/07/02 07:39:42;;;;;;;;;;;34.40;59.20;;;;;;1844999;75;20207;-78
2021/07/02 07:42:14;;;;;;;;;;;34.40;59.10;;;;;;1813589;76;20316;-79
2021/07/02 07:44:43;;;;;;;;;;;34.30;59.40;;;;;;1849536;73;20476;-77
2021/07/02 07:47:13;;;;;;;;;;;34.10;59.00;;;;;;1823084;75;20184;-78
2021/07/02 07:49:44;;;;;;;;;;;34.10;59.60;;;;;;1900616;73;20200;-78
2021/07/02 07:54:43;;;;;;;;;;;34.10;60.60;;;;;;1876340;73;20240;-79
2021/07/02 07:57:13;;;;;;;;;;;34.00;59.40;;;;;;1882659;73;20197;-79
2021/07/02 07:59:43;;;;;;;;;;;34.00;59.70;;;;;;1893853;73;20214;-79
2021/07/02 08:02:14;;;;;;;;;;;34.00;60.10;;;;;;1875663;73;20188;-79
2021/07/02 08:04:43;;;;;;;;;;;33.90;59.90;;;;;;1860436;75;20172;-78
2021/07/02 08:07:13;;;;;;;;;;;33.90;61.00;;;;;;1878289;74;20232;-78
2021/07/02 08:09:44;;;;;;;;;;;34.00;61.70;;;;;;1847583;74;20317;-80
2021/07/02 08:12:13;;;;;;;;;;;34.10;62.50;;;;;;1830832;75;20150;-78
2021/07/02 08:14:46;;;;;;;;;;;34.10;61.30;;;;;;1847269;74;20237;-78
2021/07/02 08:17:14;;;;;;;;;;;34.20;61.40;;;;;;1857185;74;20297;-77
2021/07/02 08:19:44;;;;;;;;;;;34.20;60.40;;;;;;1860530;75;20265;-79
2021/07/02 08:22:13;;;;;;;;;;;34.30;59.80;;;;;;1855833;74;20390;-78
2021/07/02 08:24:43;;;;;;;;;;;34.40;60.10;;;;;;1876110;74;20750;-78
2021/07/02 08:27:12;;;;;;;;;;;34.50;58.90;;;;;;1872778;74;20165;-79
2021/07/02 08:29:42;;;;;;;;;;;34.50;59.20;;;;;;1875418;74;20257;-79
2021/07/02 08:32:12;;;;;;;;;;;34.50;59.20;;;;;;1890164;73;20359;-80
2021/07/02 08:34:45;;;;;;;;;;;34.50;59.50;;;;;;1884987;74;20292;-79
2021/07/02 08:37:14;;;;;;;;;;;34.50;59.10;;;;;;1881962;74;20250;-78
2021/07/02 08:39:48;;;;;;;;;;;34.40;59.10;;;;;;1895769;72;20152;-78
2021/07/02 08:42:18;;;;;;;;;;;34.40;59.30;;;;;;1902647;73;20127;-79
2021/07/02 08:44:48;;;;;;;;;;;34.40;59.30;;;;;;1886040;74;20289;-79
2021/07/02 08:47:20;;;;;;;;;;;34.40;59.20;;;;;;1909225;73;20162;-79
2021/07/02 08:49:50;;;;;;;;;;;34.40;59.10;;;;;;1857268;75;20218;-79
2021/07/02 08:52:19;;;;;;;;;;;34.40;59.00;;;;;;1890620;74;20265;-79
2021/07/02 08:54:49;;;;;;;;;;;34.40;58.70;;;;;;1897514;74;20205;-79
2021/07/02 08:57:19;;;;;;;;;;;34.40;59.30;;;;;;1899202;72;20493;-79
2021/07/02 08:59:49;;;;;;;;;;;34.40;60.00;;;;;;1898380;73;20219;-79
2021/07/02 09:02:20;;;;;;;;;;;34.40;59.90;;;;;;1823742;76;20214;-78
2021/07/02 09:04:49;;;;;;;;;;;34.40;57.80;;;;;;1861363;75;20177;-78
2021/07/02 09:07:19;;;;;;;;;;;34.50;58.50;;;;;;1843332;74;20238;-78
2021/07/02 09:09:50;;;;;;;;;;;34.40;58.40;;;;;;1845927;75;20225;-77
2021/07/02 09:12:21;;;;;;;;;;;34.40;59.00;;;;;;1890338;75;20231;-78
2021/07/02 09:14:51;;;;;;;;;;;34.40;59.10;;;;;;1891047;74;20490;-77
2021/07/02 09:17:23;;;;;;;;;;;34.30;58.40;;;;;;1900278;74;20255;-78
2021/07/02 09:19:54;;;;;;;;;;;34.30;58.80;;;;;;1896962;74;20194;-78
2021/07/02 09:22:24;;;;;;;;;;;34.30;58.70;;;;;;1893191;75;20143;-78
2021/07/02 09:24:55;;;;;;;;;;;34.40;58.90;;;;;;1865205;74;20229;-77
2021/07/02 09:27:28;;;;;;;;;;;34.40;58.50;;;;;;1921704;73;20243;-78
2021/07/02 09:30:00;;;;;;;;;;;34.30;58.80;;;;;;1901530;74;20234;-76
2021/07/02 09:32:37;;;;;;;;;;;34.30;59.40;;;;;;1889201;74;20199;-78
2021/07/02 09:35:09;;;;;;;;;;;34.30;58.90;;;;;;1898345;73;20237;-78
2021/07/02 09:37:43;;;;;;;;;;;34.30;58.60;;;;;;1864820;74;20285;-78
2021/07/02 09:40:13;;;;;;;;;;;34.30;58.10;;;;;;1894589;72;20465;-79
2021/07/02 09:42:46;;;;;;;;;;;34.30;58.10;;;;;;1915042;74;20591;-78
2021/07/02 09:45:16;;;;;;;;;;;34.30;58.80;;;;;;1914139;73;20216;-79
2021/07/02 09:47:47;;;;;;;;;;;34.30;58.50;;;;;;1905185;73;20163;-78
2021/07/02 09:50:18;;;;;;;;;;;34.30;59.50;;;;;;1910536;73;20189;-79
2021/07/02 09:52:48;;;;;;;;;;;34.30;58.30;;;;;;1835627;77;20461;-78
2021/07/02 09:55:19;;;;;;;;;;;34.30;58.80;;;;;;1853061;75;20195;-78
2021/07/02 09:57:53;;;;;;;;;;;34.20;58.20;;;;;;1855017;75;20494;-79
2021/07/02 10:00:21;;;;;;;;;;;34.30;58.20;;;;;;1899246;73;20213;-78
2021/07/02 10:02:51;;;;;;;;;;;34.30;58.10;;;;;;1903964;72;20238;-77
2021/07/02 10:05:21;;;;;;;;;;;34.30;58.30;;;;;;1907730;73;20493;-78
2021/07/02 10:07:52;;;;;;;;;;;34.30;59.90;;;;;;1863822;75;20236;-78
2021/07/02 10:10:21;;;;;;;;;;;34.30;59.70;;;;;;1887423;74;20669;-78
2021/07/02 10:12:51;;;;;;;;;;;34.30;60.00;;;;;;1894707;74;20207;-78
2021/07/02 10:15:22;;;;;;;;;;;34.30;60.20;;;;;;1899570;72;20206;-77
2021/07/02 10:17:51;;;;;;;;;;;34.30;59.60;;;;;;1903951;73;20201;-78
2021/07/02 10:20:21;;;;;;;;;;;34.30;58.70;;;;;;1905054;73;20151;-79
2021/07/02 10:22:51;;;;;;;;;;;34.40;58.60;;;;;;1893829;73;20327;-77
2021/07/02 10:25:21;;;;;;;;;;;34.40;58.80;;;;;;1902471;73;20251;-78
2021/07/02 10:27:51;;;;;;;;;;;34.30;58.30;;;;;;1842226;75;20168;-78
2021/07/02 10:30:24;;;;;;;;;;;34.20;58.30;;;;;;1841392;77;20210;-79
2021/07/02 10:32:55;;;;;;;;;;;34.10;59.10;;;;;;1865446;74;20459;-78
2021/07/02 10:35:28;;;;;;;;;;;34.10;57.50;;;;;;1900458;74;20280;-79
2021/07/02 10:37:58;;;;;;;;;;;34.10;57.70;;;;;;1870223;75;20164;-79
2021/07/02 10:40:30;;;;;;;;;;;34.00;58.10;;;;;;1896574;73;20311;-81
2021/07/02 10:43:02;;;;;;;;;;;34.00;58.40;;;;;;1903421;74;20189;-79
2021/07/02 10:45:31;;;;;;;;;;;33.90;58.20;;;;;;1889277;72;20237;-80
2021/07/02 10:48:02;;;;;;;;;;;33.90;58.40;;;;;;1912793;73;20169;-79
2021/07/02 10:50:32;;;;;;;;;;;33.90;58.30;;;;;;1879629;74;20433;-79
2021/07/02 10:53:03;;;;;;;;;;;33.80;58.80;;;;;;1899261;74;20181;-80
2021/07/02 10:55:33;;;;;;;;;;;33.80;58.80;;;;;;1898609;74;20291;-79
2021/07/02 10:58:03;;;;;;;;;;;33.80;58.90;;;;;;1914108;73;20229;-78
2021/07/02 11:00:33;;;;;;;;;;;33.70;59.00;;;;;;1891410;74;20170;-79
2021/07/02 11:03:04;;;;;;;;;;;33.70;58.80;;;;;;1885372;74;20471;-77
2021/07/02 11:05:34;;;;;;;;;;;33.60;58.90;;;;;;1901257;75;20174;-79
2021/07/02 11:08:04;;;;;;;;;;;33.60;59.00;;;;;;1918890;73;20126;-79
2021/07/02 11:10:35;;;;;;;;;;;33.60;59.30;;;;;;1910227;72;20233;-80
2021/07/02 11:13:05;;;;;;;;;;;33.60;59.40;;;;;;1919721;73;20189;-77
2021/07/02 11:15:35;;;;;;;;;;;33.50;59.50;;;;;;1919182;73;20239;-78
2021/07/02 11:18:07;;;;;;;;;;;33.50;59.90;;;;;;1913319;73;20138;-78
2021/07/02 11:20:37;;;;;;;;;;;33.50;60.70;;;;;;1901535;74;20290;-77
2021/07/02 11:23:07;;;;;;;;;;;33.50;61.00;;;;;;1909750;73;20170;-77
2021/07/02 11:28:15;;;;;;;;;;;33.50;61.60;;;;;;1861997;75;21046;-77
2021/07/02 11:30:43;;;;;;;;;;;33.40;61.80;;;;;;1901111;73;20221;-78
2021/07/02 11:33:14;;;;;;;;;;;33.40;62.10;;;;;;1898951;73;20119;-78
2021/07/02 11:35:45;;;;;;;;;;;33.40;62.00;;;;;;1909207;73;20487;-78
2021/07/02 11:38:16;;;;;;;;;;;33.40;62.20;;;;;;1915548;72;20173;-76
2021/07/02 11:40:47;;;;;;;;;;;33.40;62.50;;;;;;1861728;74;20163;-77
2021/07/02 11:43:19;;;;;;;;;;;33.40;62.30;;;;;;1913436;73;20217;-79
2021/07/02 11:45:53;;;;;;;;;;;33.40;62.30;;;;;;1917482;72;20463;-76
2021/07/02 11:48:23;;;;;;;;;;;33.40;62.80;;;;;;1891675;73;20171;-77
2021/07/02 11:50:53;;;;;;;;;;;33.30;62.70;;;;;;1889225;74;20182;-77
2021/07/02 11:53:24;;;;;;;;;;;33.30;63.40;;;;;;1891959;74;20251;-77
2021/07/02 11:55:55;;;;;;;;;;;33.20;63.50;;;;;;1893654;75;20161;-77
2021/07/02 11:58:26;;;;;;;;;;;33.20;64.10;;;;;;1892603;75;20176;-77
2021/07/02 12:00:57;;;;;;;;;;;33.20;64.10;;;;;;1875640;74;20195;-77
2021/07/02 12:03:27;;;;;;;;;;;33.20;64.20;;;;;;1870356;74;20247;-76
2021/07/02 12:05:58;;;;;;;;;;;33.10;64.40;;;;;;1842318;75;20206;-77
2021/07/02 12:08:29;;;;;;;;;;;33.00;64.60;;;;;;1850350;75;20218;-77
2021/07/02 12:11:00;;;;;;;;;;;33.00;64.60;;;;;;1882686;73;20154;-76
2021/07/02 12:13:34;;;;;;;;;;;33.00;64.80;;;;;;1904095;73;20199;-78
2021/07/02 12:16:03;;;;;;;;;;;32.90;64.70;;;;;;1920463;72;20163;-77
2021/07/02 12:18:34;;;;;;;;;;;33.00;64.80;;;;;;1915662;72;20180;-93
2021/07/02 12:21:05;;;;;;;;;;;33.00;64.90;;;;;;1888352;74;20171;-93
2021/07/02 12:23:36;;;;;;;;;;;33.00;65.10;;;;;;1916107;73;20214;-93
2021/07/02 12:26:08;;;;;;;;;;;33.00;65.30;;;;;;1866505;75;20258;-94
2021/07/02 12:28:39;;;;;;;;;;;33.00;65.20;;;;;;1913178;72;20177;-94
2021/07/02 12:31:08;;;;;;;;;;;33.00;65.30;;;;;;1915721;72;20199;-92
2021/07/02 12:33:39;;;;;;;;;;;33.00;65.60;;;;;;1844415;75;20213;-94
2021/07/02 12:36:09;;;;;;;;;;;33.00;66.80;;;;;;1835009;77;20213;-95
2021/07/02 12:38:40;;;;;;;;;;;33.00;66.90;;;;;;1914879;73;20321;-93
2021/07/02 12:41:10;;;;;;;;;;;33.00;66.60;;;;;;1908681;73;20517;-95
2021/07/02 12:43:43;;;;;;;;;;;33.00;66.30;;;;;;1879315;75;20150;-93
2021/07/02 12:46:12;;;;;;;;;;;33.00;66.30;;;;;;1856267;75;20436;-93
2021/07/02 12:48:42;;;;;;;;;;;32.90;66.00;;;;;;1912044;73;20183;-92
2021/07/02 12:51:12;;;;;;;;;;;32.90;66.00;;;;;;1913321;73;20264;-92
2021/07/02 12:56:13;;;;;;;;;;;33.00;66.20;;;;;;1900714;72;20175;-93
2021/07/02 12:58:43;;;;;;;;;;;32.90;66.40;;;;;;1908250;73;20175;-91
2021/07/02 13:01:13;;;;;;;;;;;32.90;66.60;;;;;;1901140;73;20381;-93
2021/07/02 13:03:42;;;;;;;;;;;32.90;66.80;;;;;;1891112;73;20377;-93
2021/07/02 13:06:15;;;;;;;;;;;32.90;67.20;;;;;;1835372;76;20119;-92
2021/07/02 13:08:45;;;;;;;;;;;32.90;67.60;;;;;;1833443;76;20316;-93
2021/07/02 13:11:16;;;;;;;;;;;32.90;67.90;;;;;;1836866;76;20252;-93
2021/07/02 13:13:46;;;;;;;;;;;32.80;67.80;;;;;;1896855;73;20146;-93
2021/07/02 13:16:15;;;;;;;;;;;32.80;67.90;;;;;;1909899;73;20186;-92
2021/07/02 13:18:46;;;;;;;;;;;32.80;68.50;;;;;;1857721;75;20262;-92
2021/07/02 13:21:19;;;;;;;;;;;32.80;69.40;;;;;;1909033;73;20179;-91
2021/07/02 13:23:50;;;;;;;;;;;32.80;68.60;;;;;;1881702;75;20162;-93
2021/07/02 13:26:20;;;;;;;;;;;32.70;68.70;;;;;;1836498;75;20136;-93
2021/07/02 13:28:51;;;;;;;;;;;32.70;68.70;;;;;;1840595;76;20179;-92
2021/07/02 13:31:22;;;;;;;;;;;32.70;68.70;;;;;;1844948;75;20279;-93
2021/07/02 13:33:53;;;;;;;;;;;32.70;69.00;;;;;;1882914;74;20263;-92
2021/07/02 13:36:24;;;;;;;;;;;32.70;69.40;;;;;;1871103;74;20214;-92
2021/07/02 13:38:55;;;;;;;;;;;32.70;70.70;;;;;;1871984;74;20244;-92
2021/07/02 13:41:24;;;;;;;;;;;32.70;71.70;;;;;;1876815;73;20164;-92
2021/07/02 13:43:55;;;;;;;;;;;32.70;70.60;;;;;;1900810;73;20137;-91
2021/07/02 13:46:26;;;;;;;;;;;32.60;70.10;;;;;;1927642;73;20181;-92
2021/07/02 13:48:56;;;;;;;;;;;32.60;72.10;;;;;;1890157;73;20160;-94
2021/07/02 13:51:26;;;;;;;;;;;32.60;71.20;;;;;;1910254;72;20212;-94
2021/07/02 13:53:56;;;;;;;;;;;32.60;71.20;;;;;;1908953;74;20189;-93
2021/07/02 13:56:26;;;;;;;;;;;32.60;72.10;;;;;;1886992;72;20531;-93
2021/07/02 13:58:55;;;;;;;;;;;32.60;72.00;;;;;;1922328;73;20248;-93
2021/07/02 14:01:25;;;;;;;;;;;32.60;71.90;;;;;;1913819;73;20127;-93
2021/07/02 14:03:55;;;;;;;;;;;32.60;73.20;;;;;;1952952;72;20470;-94
2021/07/02 14:06:24;;;;;;;;;;;32.50;73.30;;;;;;1878339;75;20159;-92
2021/07/02 14:08:54;;;;;;;;;;;32.50;74.30;;;;;;1894088;74;20138;-93
2021/07/02 14:11:24;;;;;;;;;;;32.50;74.30;;;;;;1908741;73;20127;-92
2021/07/02 14:13:53;;;;;;;;;;;32.40;75.10;;;;;;1850569;75;20218;-93
2021/07/02 14:16:25;;;;;;;;;;;32.40;75.30;;;;;;1886154;73;20154;-91
2021/07/02 14:18:54;;;;;;;;;;;32.30;74.90;;;;;;1899495;73;20193;-93
2021/07/02 14:21:25;;;;;;;;;;;32.30;73.20;;;;;;1913399;74;20247;-93
2021/07/02 14:23:55;;;;;;;;;;;32.30;71.80;;;;;;1897680;74;20275;-93
2021/07/02 14:26:26;;;;;;;;;;;32.20;70.90;;;;;;1896569;74;20206;-89
2021/07/02 14:28:56;;;;;;;;;;;32.20;70.30;;;;;;1855046;76;20162;-91
2021/07/02 14:31:25;;;;;;;;;;;32.20;69.80;;;;;;1892449;74;20237;-93
2021/07/02 14:33:55;;;;;;;;;;;32.20;69.50;;;;;;1893370;73;20287;-93
2021/07/02 14:36:25;;;;;;;;;;;32.20;68.90;;;;;;1882680;73;20162;-92
2021/07/02 14:38:54;;;;;;;;;;;32.20;69.00;;;;;;1884025;74;20464;-91
2021/07/02 14:41:24;;;;;;;;;;;32.20;69.50;;;;;;1903472;73;20126;-92
2021/07/02 14:43:54;;;;;;;;;;;32.30;69.70;;;;;;1887538;75;20162;-93